sensor_id;sensor_type;location;lat;lon;timestamp;temperature;humidity
29731;DHT22;16639;51.488;0.152;2023-12-20T00:01:11;7.30;99.90
29731;DHT22;16639;51.488;0.152;2023-12-20T00:03:39;7.20;99.90
29731;DHT22;16639;51.488;0.152;2023-12-20T00:06:09;7.20;99.90
29731;DHT22;16639;51.488;0.152;2023-12-20T00:08:37;7.20;99.90
29731;DHT22;16639;51.488;0.152;2023-12-20T00:11:04;7.20;99.90
29731;DHT22;16639;51.488;0.152;2023-12-20T00:13:32;7.20;99.90
29731;DHT22;16639;51.488;0.152;2023-12-20T00:18:43;7.30;99.90
29731;DHT22;16639;51.488;0.152;2023-12-20T00:21:10;7.20;99.90
29731;DHT22;16639;51.488;0.152;2023-12-20T00:23:38;7.20;99.90
29731;DHT22;16639;51.488;0.152;2023-12-20T00:26:05;7.20;99.90
29731;DHT22;16639;51.488;0.152;2023-12-20T00:28:33;7.20;99.90
29731;DHT22;16639;51.488;0.152;2023-12-20T00:31:00;7.20;99.90
29731;DHT22;16639;51.488;0.152;2023-12-20T00:33:28;7.20;99.90
29731;DHT22;16639;51.488;0.152;2023-12-20T00:35:55;7.20;99.90
29731;DHT22;16639;51.488;0.152;2023-12-20T00:38:22;7.20;99.90
29731;DHT22;16639;51.488;0.152;2023-12-20T00:40:50;7.20;99.90
29731;DHT22;16639;51.488;0.152;2023-12-20T00:43:17;7.20;99.90
29731;DHT22;16639;51.488;0.152;2023-12-20T00:45:45;7.20;99.90
29731;DHT22;16639;51.488;0.152;2023-12-20T00:48:12;7.20;99.90
29731;DHT22;16639;51.488;0.152;2023-12-20T00:50:40;7.10;99.90
29731;DHT22;16639;51.488;0.152;2023-12-20T00:53:07;7.10;99.90
29731;DHT22;16639;51.488;0.152;2023-12-20T00:55:35;7.20;99.90
29731;DHT22;16639;51.488;0.152;2023-12-20T00:58:02;7.20;99.90
29731;DHT22;16639;51.488;0.152;2023-12-20T01:00:30;7.10;99.90
29731;DHT22;16639;51.488;0.152;2023-12-20T01:02:57;7.10;99.90
29731;DHT22;16639;51.488;0.152;2023-12-20T01:05:25;7.10;99.90
29731;DHT22;16639;51.488;0.152;2023-12-20T01:07:52;7.10;99.90
29731;DHT22;16639;51.488;0.152;2023-12-20T01:10:20;7.10;99.90
29731;DHT22;16639;51.488;0.152;2023-12-20T01:12:49;8.30;99.90
29731;DHT22;16639;51.488;0.152;2023-12-20T01:15:16;7.00;99.90
29731;DHT22;16639;51.488;0.152;2023-12-20T01:17:43;7.30;99.90
29731;DHT22;16639;51.488;0.152;2023-12-20T01:20:11;7.10;99.90
29731;DHT22;16639;51.488;0.152;2023-12-20T01:22:39;7.10;99.90
29731;DHT22;16639;51.488;0.152;2023-12-20T01:25:07;7.10;99.90
29731;DHT22;16639;51.488;0.152;2023-12-20T01:27:34;7.10;99.90
29731;DHT22;16639;51.488;0.152;2023-12-20T01:30:02;7.10;99.90
29731;DHT22;16639;51.488;0.152;2023-12-20T01:32:29;7.00;99.90
29731;DHT22;16639;51.488;0.152;2023-12-20T01:34:57;7.00;99.90
29731;DHT22;16639;51.488;0.152;2023-12-20T01:37:29;8.00;99.90
29731;DHT22;16639;51.488;0.152;2023-12-20T01:39:57;7.00;99.90
29731;DHT22;16639;51.488;0.152;2023-12-20T01:42:24;7.00;99.90
29731;DHT22;16639;51.488;0.152;2023-12-20T01:44:52;7.00;99.90
29731;DHT22;16639;51.488;0.152;2023-12-20T01:47:20;7.00;99.90
29731;DHT22;16639;51.488;0.152;2023-12-20T01:49:48;7.00;99.90
29731;DHT22;16639;51.488;0.152;2023-12-20T01:52:16;7.00;99.90
29731;DHT22;16639;51.488;0.152;2023-12-20T01:54:44;7.10;99.90
29731;DHT22;16639;51.488;0.152;2023-12-20T01:57:12;7.10;99.90
29731;DHT22;16639;51.488;0.152;2023-12-20T01:59:39;6.70;99.90
29731;DHT22;16639;51.488;0.152;2023-12-20T02:02:07;7.10;99.90
29731;DHT22;16639;51.488;0.152;2023-12-20T02:04:35;7.10;99.90
29731;DHT22;16639;51.488;0.152;2023-12-20T02:07:03;7.10;99.90
29731;DHT22;16639;51.488;0.152;2023-12-20T02:09:32;7.10;99.90
29731;DHT22;16639;51.488;0.152;2023-12-20T02:11:59;7.10;99.90
29731;DHT22;16639;51.488;0.152;2023-12-20T02:14:27;7.10;99.90
29731;DHT22;16639;51.488;0.152;2023-12-20T02:16:54;7.10;99.90
29731;DHT22;16639;51.488;0.152;2023-12-20T02:19:22;7.10;99.90
29731;DHT22;16639;51.488;0.152;2023-12-20T02:21:49;7.10;99.90
29731;DHT22;16639;51.488;0.152;2023-12-20T02:24:17;6.10;99.90
29731;DHT22;16639;51.488;0.152;2023-12-20T02:26:45;7.10;99.90
29731;DHT22;16639;51.488;0.152;2023-12-20T02:29:13;7.10;99.90
29731;DHT22;16639;51.488;0.152;2023-12-20T02:31:40;7.00;99.90
29731;DHT22;16639;51.488;0.152;2023-12-20T02:34:08;7.10;99.90
29731;DHT22;16639;51.488;0.152;2023-12-20T02:36:35;7.10;99.90
29731;DHT22;16639;51.488;0.152;2023-12-20T02:39:03;7.10;99.90
29731;DHT22;16639;51.488;0.152;2023-12-20T02:41:31;7.10;99.90
29731;DHT22;16639;51.488;0.152;2023-12-20T02:43:58;7.10;99.90
29731;DHT22;16639;51.488;0.152;2023-12-20T02:46:26;6.70;99.90
29731;DHT22;16639;51.488;0.152;2023-12-20T02:48:53;7.20;99.90
29731;DHT22;16639;51.488;0.152;2023-12-20T02:51:21;7.10;99.90
29731;DHT22;16639;51.488;0.152;2023-12-20T02:53:48;7.20;99.90
29731;DHT22;16639;51.488;0.152;2023-12-20T02:56:15;7.20;99.90
29731;DHT22;16639;51.488;0.152;2023-12-20T02:58:43;7.40;99.90
29731;DHT22;16639;51.488;0.152;2023-12-20T03:01:10;7.10;99.90
29731;DHT22;16639;51.488;0.152;2023-12-20T03:03:38;7.10;99.90
29731;DHT22;16639;51.488;0.152;2023-12-20T03:06:05;7.80;99.90
29731;DHT22;16639;51.488;0.152;2023-12-20T03:08:33;7.10;99.90
29731;DHT22;16639;51.488;0.152;2023-12-20T03:11:00;7.10;99.90
29731;DHT22;16639;51.488;0.152;2023-12-20T03:13:28;7.10;99.90
29731;DHT22;16639;51.488;0.152;2023-12-20T03:15:55;7.10;99.90
29731;DHT22;16639;51.488;0.152;2023-12-20T03:18:23;7.10;99.90
29731;DHT22;16639;51.488;0.152;2023-12-20T03:20:50;7.10;99.90
29731;DHT22;16639;51.488;0.152;2023-12-20T03:23:18;7.30;99.90
29731;DHT22;16639;51.488;0.152;2023-12-20T03:25:45;7.10;99.90
29731;DHT22;16639;51.488;0.152;2023-12-20T03:28:14;7.20;99.90
29731;DHT22;16639;51.488;0.152;2023-12-20T03:30:42;7.10;99.90
29731;DHT22;16639;51.488;0.152;2023-12-20T03:33:10;7.10;99.90
29731;DHT22;16639;51.488;0.152;2023-12-20T03:35:37;7.10;99.90
29731;DHT22;16639;51.488;0.152;2023-12-20T03:38:05;6.50;99.90
29731;DHT22;16639;51.488;0.152;2023-12-20T03:40:32;7.10;99.90
29731;DHT22;16639;51.488;0.152;2023-12-20T03:43:00;7.10;99.90
29731;DHT22;16639;51.488;0.152;2023-12-20T03:45:27;7.10;99.90
29731;DHT22;16639;51.488;0.152;2023-12-20T03:47:55;7.10;99.90
29731;DHT22;16639;51.488;0.152;2023-12-20T03:50:23;7.10;99.90
29731;DHT22;16639;51.488;0.152;2023-12-20T03:52:51;7.10;99.90
29731;DHT22;16639;51.488;0.152;2023-12-20T03:55:19;7.10;99.90
29731;DHT22;16639;51.488;0.152;2023-12-20T03:57:46;7.10;99.90
29731;DHT22;16639;51.488;0.152;2023-12-20T04:00:14;7.10;99.90
29731;DHT22;16639;51.488;0.152;2023-12-20T04:02:42;7.10;99.90
29731;DHT22;16639;51.488;0.152;2023-12-20T04:05:10;7.00;99.90
29731;DHT22;16639;51.488;0.152;2023-12-20T04:07:37;7.10;99.90
29731;DHT22;16639;51.488;0.152;2023-12-20T04:10:05;7.10;99.90
29731;DHT22;16639;51.488;0.152;2023-12-20T04:12:33;6.90;99.90
29731;DHT22;16639;51.488;0.152;2023-12-20T04:15:01;7.00;99.90
29731;DHT22;16639;51.488;0.152;2023-12-20T04:17:28;6.90;99.90
29731;DHT22;16639;51.488;0.152;2023-12-20T04:19:55;7.10;99.90
29731;DHT22;16639;51.488;0.152;2023-12-20T04:22:23;7.70;99.90
29731;DHT22;16639;51.488;0.152;2023-12-20T04:24:50;7.10;99.90
29731;DHT22;16639;51.488;0.152;2023-12-20T04:27:18;7.20;99.90
29731;DHT22;16639;51.488;0.152;2023-12-20T04:29:45;7.10;99.90
29731;DHT22;16639;51.488;0.152;2023-12-20T04:32:12;7.10;99.90
29731;DHT22;16639;51.488;0.152;2023-12-20T04:34:40;7.10;99.90
29731;DHT22;16639;51.488;0.152;2023-12-20T04:37:07;7.10;99.90
29731;DHT22;16639;51.488;0.152;2023-12-20T04:39:35;7.20;99.90
29731;DHT22;16639;51.488;0.152;2023-12-20T04:42:03;7.20;99.90
29731;DHT22;16639;51.488;0.152;2023-12-20T04:44:30;7.20;99.90
29731;DHT22;16639;51.488;0.152;2023-12-20T04:46:58;7.10;99.90
29731;DHT22;16639;51.488;0.152;2023-12-20T04:49:25;7.20;99.90
29731;DHT22;16639;51.488;0.152;2023-12-20T04:51:52;7.10;99.90
29731;DHT22;16639;51.488;0.152;2023-12-20T04:54:20;7.10;99.90
29731;DHT22;16639;51.488;0.152;2023-12-20T04:56:47;7.00;99.90
29731;DHT22;16639;51.488;0.152;2023-12-20T04:59:15;6.90;99.90
29731;DHT22;16639;51.488;0.152;2023-12-20T05:01:42;7.10;99.90
29731;DHT22;16639;51.488;0.152;2023-12-20T05:04:09;7.10;99.90
29731;DHT22;16639;51.488;0.152;2023-12-20T05:06:37;7.10;99.90
29731;DHT22;16639;51.488;0.152;2023-12-20T05:09:05;7.10;99.90
29731;DHT22;16639;51.488;0.152;2023-12-20T05:11:32;7.00;99.90
29731;DHT22;16639;51.488;0.152;2023-12-20T05:13:59;7.00;99.90
29731;DHT22;16639;51.488;0.152;2023-12-20T05:16:27;7.10;99.90
29731;DHT22;16639;51.488;0.152;2023-12-20T05:18:54;7.00;99.90
29731;DHT22;16639;51.488;0.152;2023-12-20T05:21:23;7.00;99.90
29731;DHT22;16639;51.488;0.152;2023-12-20T05:23:50;7.00;99.90
29731;DHT22;16639;51.488;0.152;2023-12-20T05:26:18;7.00;99.90
29731;DHT22;16639;51.488;0.152;2023-12-20T05:28:45;7.00;99.90
29731;DHT22;16639;51.488;0.152;2023-12-20T05:31:12;7.00;99.90
29731;DHT22;16639;51.488;0.152;2023-12-20T05:33:40;6.80;99.90
29731;DHT22;16639;51.488;0.152;2023-12-20T05:36:07;7.30;99.90
29731;DHT22;16639;51.488;0.152;2023-12-20T05:38:38;7.00;99.90
29731;DHT22;16639;51.488;0.152;2023-12-20T05:41:06;7.00;99.90
29731;DHT22;16639;51.488;0.152;2023-12-20T05:43:33;7.30;99.90
29731;DHT22;16639;51.488;0.152;2023-12-20T05:46:01;7.00;99.90
29731;DHT22;16639;51.488;0.152;2023-12-20T05:48:28;7.00;99.90
29731;DHT22;16639;51.488;0.152;2023-12-20T05:50:55;7.00;99.90
29731;DHT22;16639;51.488;0.152;2023-12-20T05:53:23;7.00;99.90
29731;DHT22;16639;51.488;0.152;2023-12-20T05:55:50;7.00;99.90
29731;DHT22;16639;51.488;0.152;2023-12-20T05:58:18;7.10;99.90
29731;DHT22;16639;51.488;0.152;2023-12-20T06:00:45;7.00;99.90
29731;DHT22;16639;51.488;0.152;2023-12-20T06:03:12;6.60;99.90
29731;DHT22;16639;51.488;0.152;2023-12-20T06:05:40;7.00;99.90
29731;DHT22;16639;51.488;0.152;2023-12-20T06:08:07;7.40;99.90
29731;DHT22;16639;51.488;0.152;2023-12-20T06:10:35;7.00;99.90
29731;DHT22;16639;51.488;0.152;2023-12-20T06:13:02;7.80;99.90
29731;DHT22;16639;51.488;0.152;2023-12-20T06:15:31;7.00;99.90
29731;DHT22;16639;51.488;0.152;2023-12-20T06:17:58;7.00;99.90
29731;DHT22;16639;51.488;0.152;2023-12-20T06:20:26;7.10;99.90
29731;DHT22;16639;51.488;0.152;2023-12-20T06:22:54;7.10;99.90
29731;DHT22;16639;51.488;0.152;2023-12-20T06:25:21;6.30;99.90
29731;DHT22;16639;51.488;0.152;2023-12-20T06:27:48;7.10;99.90
29731;DHT22;16639;51.488;0.152;2023-12-20T06:30:16;7.10;99.90
29731;DHT22;16639;51.488;0.152;2023-12-20T06:32:44;7.10;99.90
29731;DHT22;16639;51.488;0.152;2023-12-20T06:35:14;7.10;99.90
29731;DHT22;16639;51.488;0.152;2023-12-20T06:37:41;7.10;99.90
29731;DHT22;16639;51.488;0.152;2023-12-20T06:40:10;7.10;99.90
29731;DHT22;16639;51.488;0.152;2023-12-20T06:42:44;7.10;99.90
29731;DHT22;16639;51.488;0.152;2023-12-20T06:45:25;7.10;99.90
29731;DHT22;16639;51.488;0.152;2023-12-20T06:47:53;7.10;99.90
29731;DHT22;16639;51.488;0.152;2023-12-20T06:50:21;7.10;99.90
29731;DHT22;16639;51.488;0.152;2023-12-20T06:52:49;7.10;99.90
29731;DHT22;16639;51.488;0.152;2023-12-20T06:55:16;7.10;99.90
29731;DHT22;16639;51.488;0.152;2023-12-20T06:57:44;7.20;99.90
29731;DHT22;16639;51.488;0.152;2023-12-20T07:00:12;7.20;99.90
29731;DHT22;16639;51.488;0.152;2023-12-20T07:02:40;7.20;99.90
29731;DHT22;16639;51.488;0.152;2023-12-20T07:05:07;6.60;99.90
29731;DHT22;16639;51.488;0.152;2023-12-20T07:07:35;7.20;99.90
29731;DHT22;16639;51.488;0.152;2023-12-20T07:10:03;7.20;99.90
29731;DHT22;16639;51.488;0.152;2023-12-20T07:12:30;7.30;99.90
29731;DHT22;16639;51.488;0.152;2023-12-20T07:14:58;8.40;99.90
29731;DHT22;16639;51.488;0.152;2023-12-20T07:17:25;7.30;99.90
29731;DHT22;16639;51.488;0.152;2023-12-20T07:19:52;7.30;99.90
29731;DHT22;16639;51.488;0.152;2023-12-20T07:22:20;7.30;99.90
29731;DHT22;16639;51.488;0.152;2023-12-20T07:24:48;7.30;99.90
29731;DHT22;16639;51.488;0.152;2023-12-20T07:27:17;7.30;99.90
29731;DHT22;16639;51.488;0.152;2023-12-20T07:29:44;7.30;99.90
29731;DHT22;16639;51.488;0.152;2023-12-20T07:32:11;7.30;99.90
29731;DHT22;16639;51.488;0.152;2023-12-20T07:34:39;7.30;99.90
29731;DHT22;16639;51.488;0.152;2023-12-20T07:37:06;7.20;99.90
29731;DHT22;16639;51.488;0.152;2023-12-20T07:39:34;7.30;99.90
29731;DHT22;16639;51.488;0.152;2023-12-20T07:42:01;7.30;99.90
29731;DHT22;16639;51.488;0.152;2023-12-20T07:44:28;7.30;99.90
29731;DHT22;16639;51.488;0.152;2023-12-20T07:46:56;7.20;99.90
29731;DHT22;16639;51.488;0.152;2023-12-20T07:49:24;7.20;99.90
29731;DHT22;16639;51.488;0.152;2023-12-20T07:51:52;7.20;99.90
29731;DHT22;16639;51.488;0.152;2023-12-20T07:54:19;7.20;99.90
29731;DHT22;16639;51.488;0.152;2023-12-20T07:56:47;7.30;99.90
29731;DHT22;16639;51.488;0.152;2023-12-20T07:59:16;7.30;99.90
29731;DHT22;16639;51.488;0.152;2023-12-20T08:01:56;7.30;99.90
29731;DHT22;16639;51.488;0.152;2023-12-20T08:04:23;6.00;99.90
29731;DHT22;16639;51.488;0.152;2023-12-20T08:06:51;7.30;99.90
29731;DHT22;16639;51.488;0.152;2023-12-20T08:09:18;7.30;99.90
29731;DHT22;16639;51.488;0.152;2023-12-20T08:11:47;8.40;99.90
29731;DHT22;16639;51.488;0.152;2023-12-20T08:14:15;7.30;99.90
29731;DHT22;16639;51.488;0.152;2023-12-20T08:16:45;7.30;99.90
29731;DHT22;16639;51.488;0.152;2023-12-20T08:19:13;7.30;99.90
29731;DHT22;16639;51.488;0.152;2023-12-20T08:21:41;7.30;99.90
29731;DHT22;16639;51.488;0.152;2023-12-20T08:24:08;7.30;99.90
29731;DHT22;16639;51.488;0.152;2023-12-20T08:26:36;7.40;99.90
29731;DHT22;16639;51.488;0.152;2023-12-20T08:29:03;7.40;99.90
29731;DHT22;16639;51.488;0.152;2023-12-20T08:31:30;7.40;99.90
29731;DHT22;16639;51.488;0.152;2023-12-20T08:33:58;7.40;99.90
29731;DHT22;16639;51.488;0.152;2023-12-20T08:36:25;8.40;99.90
29731;DHT22;16639;51.488;0.152;2023-12-20T08:38:53;7.30;99.90
29731;DHT22;16639;51.488;0.152;2023-12-20T08:41:20;7.30;99.90
29731;DHT22;16639;51.488;0.152;2023-12-20T08:43:48;7.30;99.90
29731;DHT22;16639;51.488;0.152;2023-12-20T08:46:15;7.40;99.90
29731;DHT22;16639;51.488;0.152;2023-12-20T08:48:43;7.50;99.90
29731;DHT22;16639;51.488;0.152;2023-12-20T08:51:11;7.50;99.90
29731;DHT22;16639;51.488;0.152;2023-12-20T08:53:38;7.50;99.90
29731;DHT22;16639;51.488;0.152;2023-12-20T08:56:06;7.60;99.90
29731;DHT22;16639;51.488;0.152;2023-12-20T08:58:34;7.70;99.90
29731;DHT22;16639;51.488;0.152;2023-12-20T09:01:03;7.70;99.90
29731;DHT22;16639;51.488;0.152;2023-12-20T09:03:31;7.80;99.90
29731;DHT22;16639;51.488;0.152;2023-12-20T09:05:58;7.80;99.90
29731;DHT22;16639;51.488;0.152;2023-12-20T09:08:26;7.80;99.90
29731;DHT22;16639;51.488;0.152;2023-12-20T09:10:53;7.80;99.90
29731;DHT22;16639;51.488;0.152;2023-12-20T09:13:21;7.90;99.90
29731;DHT22;16639;51.488;0.152;2023-12-20T09:15:49;7.90;99.90
29731;DHT22;16639;51.488;0.152;2023-12-20T09:18:17;7.90;99.90
29731;DHT22;16639;51.488;0.152;2023-12-20T09:20:44;7.90;99.90
29731;DHT22;16639;51.488;0.152;2023-12-20T09:23:16;7.90;99.90
29731;DHT22;16639;51.488;0.152;2023-12-20T09:25:45;7.50;99.90
29731;DHT22;16639;51.488;0.152;2023-12-20T09:28:12;8.00;99.90
29731;DHT22;16639;51.488;0.152;2023-12-20T09:30:40;8.00;99.90
29731;DHT22;16639;51.488;0.152;2023-12-20T09:33:08;8.00;99.90
29731;DHT22;16639;51.488;0.152;2023-12-20T09:35:35;8.00;99.90
29731;DHT22;16639;51.488;0.152;2023-12-20T09:38:03;8.70;99.90
29731;DHT22;16639;51.488;0.152;2023-12-20T09:40:32;8.40;99.90
29731;DHT22;16639;51.488;0.152;2023-12-20T09:43:04;8.10;99.90
29731;DHT22;16639;51.488;0.152;2023-12-20T09:45:32;8.10;99.90
29731;DHT22;16639;51.488;0.152;2023-12-20T09:48:00;8.20;99.90
29731;DHT22;16639;51.488;0.152;2023-12-20T09:50:30;8.20;99.90
29731;DHT22;16639;51.488;0.152;2023-12-20T09:53:01;8.30;99.90
29731;DHT22;16639;51.488;0.152;2023-12-20T09:55:31;8.60;99.90
29731;DHT22;16639;51.488;0.152;2023-12-20T09:58:00;8.40;99.90
29731;DHT22;16639;51.488;0.152;2023-12-20T10:00:28;8.50;99.90
29731;DHT22;16639;51.488;0.152;2023-12-20T10:02:59;8.40;99.90
29731;DHT22;16639;51.488;0.152;2023-12-20T10:05:32;8.60;99.90
29731;DHT22;16639;51.488;0.152;2023-12-20T10:08:00;8.60;99.90
29731;DHT22;16639;51.488;0.152;2023-12-20T10:10:29;8.60;99.90
29731;DHT22;16639;51.488;0.152;2023-12-20T10:13:12;8.70;99.90
29731;DHT22;16639;51.488;0.152;2023-12-20T10:15:41;8.80;99.90
29731;DHT22;16639;51.488;0.152;2023-12-20T10:18:09;8.70;99.90
29731;DHT22;16639;51.488;0.152;2023-12-20T10:20:40;8.70;99.90
29731;DHT22;16639;51.488;0.152;2023-12-20T10:23:09;8.80;99.90
29731;DHT22;16639;51.488;0.152;2023-12-20T10:25:37;8.80;99.90
29731;DHT22;16639;51.488;0.152;2023-12-20T10:28:15;8.90;99.90
29731;DHT22;16639;51.488;0.152;2023-12-20T10:30:46;8.90;99.90
29731;DHT22;16639;51.488;0.152;2023-12-20T10:33:30;8.90;99.90
29731;DHT22;16639;51.488;0.152;2023-12-20T10:36:00;9.00;99.90
29731;DHT22;16639;51.488;0.152;2023-12-20T10:38:27;9.00;99.90
29731;DHT22;16639;51.488;0.152;2023-12-20T10:40:57;9.00;99.90
29731;DHT22;16639;51.488;0.152;2023-12-20T10:43:28;9.00;99.90
29731;DHT22;16639;51.488;0.152;2023-12-20T10:45:59;9.10;99.90
29731;DHT22;16639;51.488;0.152;2023-12-20T10:48:27;9.10;99.90
29731;DHT22;16639;51.488;0.152;2023-12-20T10:50:58;9.10;99.90
29731;DHT22;16639;51.488;0.152;2023-12-20T10:53:25;9.20;99.90
29731;DHT22;16639;51.488;0.152;2023-12-20T10:55:55;9.20;99.90
29731;DHT22;16639;51.488;0.152;2023-12-20T10:58:26;9.20;99.90
29731;DHT22;16639;51.488;0.152;2023-12-20T11:01:00;9.30;99.90
29731;DHT22;16639;51.488;0.152;2023-12-20T11:03:34;9.50;99.90
29731;DHT22;16639;51.488;0.152;2023-12-20T11:12:10;9.40;99.90
29731;DHT22;16639;51.488;0.152;2023-12-20T11:14:46;9.10;99.90
29731;DHT22;16639;51.488;0.152;2023-12-20T11:17:14;9.40;99.90
29731;DHT22;16639;51.488;0.152;2023-12-20T11:22:21;10.10;99.90
29731;DHT22;16639;51.488;0.152;2023-12-20T11:24:49;9.40;99.90
29731;DHT22;16639;51.488;0.152;2023-12-20T11:27:18;9.40;99.90
29731;DHT22;16639;51.488;0.152;2023-12-20T11:29:53;9.50;99.90
29731;DHT22;16639;51.488;0.152;2023-12-20T11:34:59;9.60;99.90
29731;DHT22;16639;51.488;0.152;2023-12-20T11:37:30;9.60;99.90
29731;DHT22;16639;51.488;0.152;2023-12-20T11:40:05;9.60;99.90
29731;DHT22;16639;51.488;0.152;2023-12-20T11:42:37;9.60;99.90
29731;DHT22;16639;51.488;0.152;2023-12-20T11:45:05;9.60;99.90
29731;DHT22;16639;51.488;0.152;2023-12-20T11:47:33;9.70;99.90
29731;DHT22;16639;51.488;0.152;2023-12-20T11:50:00;9.70;99.90
29731;DHT22;16639;51.488;0.152;2023-12-20T11:52:31;9.80;99.90
29731;DHT22;16639;51.488;0.152;2023-12-20T11:54:58;9.70;99.90
29731;DHT22;16639;51.488;0.152;2023-12-20T11:57:25;9.70;99.90
29731;DHT22;16639;51.488;0.152;2023-12-20T11:59:55;9.80;99.90
29731;DHT22;16639;51.488;0.152;2023-12-20T12:02:23;9.80;99.90
29731;DHT22;16639;51.488;0.152;2023-12-20T12:04:51;9.80;99.90
29731;DHT22;16639;51.488;0.152;2023-12-20T12:07:19;9.90;99.90
29731;DHT22;16639;51.488;0.152;2023-12-20T12:09:47;9.90;99.90
29731;DHT22;16639;51.488;0.152;2023-12-20T12:12:15;9.90;99.90
29731;DHT22;16639;51.488;0.152;2023-12-20T12:14:42;9.80;99.90
29731;DHT22;16639;51.488;0.152;2023-12-20T12:17:12;9.90;99.90
29731;DHT22;16639;51.488;0.152;2023-12-20T12:19:41;9.90;99.90
29731;DHT22;16639;51.488;0.152;2023-12-20T12:24:45;9.80;99.90
29731;DHT22;16639;51.488;0.152;2023-12-20T12:27:13;9.80;99.90
29731;DHT22;16639;51.488;0.152;2023-12-20T12:29:41;9.80;99.90
29731;DHT22;16639;51.488;0.152;2023-12-20T12:32:09;9.70;99.90
29731;DHT22;16639;51.488;0.152;2023-12-20T12:34:37;9.80;99.90
29731;DHT22;16639;51.488;0.152;2023-12-20T12:37:04;9.80;99.90
29731;DHT22;16639;51.488;0.152;2023-12-20T12:39:32;9.70;99.90
29731;DHT22;16639;51.488;0.152;2023-12-20T12:41:59;8.50;99.90
29731;DHT22;16639;51.488;0.152;2023-12-20T12:44:26;9.80;99.90
29731;DHT22;16639;51.488;0.152;2023-12-20T12:46:54;9.80;99.90
29731;DHT22;16639;51.488;0.152;2023-12-20T12:49:22;9.90;99.90
29731;DHT22;16639;51.488;0.152;2023-12-20T12:51:51;9.90;99.90
29731;DHT22;16639;51.488;0.152;2023-12-20T12:54:18;10.00;99.90
29731;DHT22;16639;51.488;0.152;2023-12-20T12:56:46;10.00;99.90
29731;DHT22;16639;51.488;0.152;2023-12-20T12:59:14;10.10;99.90
29731;DHT22;16639;51.488;0.152;2023-12-20T13:01:42;10.10;99.90
29731;DHT22;16639;51.488;0.152;2023-12-20T13:04:09;10.20;99.90
29731;DHT22;16639;51.488;0.152;2023-12-20T13:06:40;9.30;99.90
29731;DHT22;16639;51.488;0.152;2023-12-20T13:09:09;10.20;99.90
29731;DHT22;16639;51.488;0.152;2023-12-20T13:11:37;10.20;99.90
29731;DHT22;16639;51.488;0.152;2023-12-20T13:14:04;10.20;99.90
29731;DHT22;16639;51.488;0.152;2023-12-20T13:16:32;10.30;99.90
29731;DHT22;16639;51.488;0.152;2023-12-20T13:19:01;10.30;99.90
29731;DHT22;16639;51.488;0.152;2023-12-20T13:21:28;10.30;99.90
29731;DHT22;16639;51.488;0.152;2023-12-20T13:23:58;10.30;99.90
29731;DHT22;16639;51.488;0.152;2023-12-20T13:26:25;10.30;99.90
29731;DHT22;16639;51.488;0.152;2023-12-20T13:28:54;10.30;99.90
29731;DHT22;16639;51.488;0.152;2023-12-20T13:31:21;10.30;99.90
29731;DHT22;16639;51.488;0.152;2023-12-20T13:33:49;10.40;99.90
29731;DHT22;16639;51.488;0.152;2023-12-20T13:36:16;10.30;99.90
29731;DHT22;16639;51.488;0.152;2023-12-20T13:38:44;10.30;99.90
29731;DHT22;16639;51.488;0.152;2023-12-20T13:41:11;10.30;99.90
29731;DHT22;16639;51.488;0.152;2023-12-20T13:43:39;10.30;99.90
29731;DHT22;16639;51.488;0.152;2023-12-20T13:46:07;10.30;99.90
29731;DHT22;16639;51.488;0.152;2023-12-20T13:48:34;10.30;99.90
29731;DHT22;16639;51.488;0.152;2023-12-20T13:51:02;10.30;99.90
29731;DHT22;16639;51.488;0.152;2023-12-20T13:53:30;10.40;99.90
29731;DHT22;16639;51.488;0.152;2023-12-20T13:55:57;10.40;99.90
29731;DHT22;16639;51.488;0.152;2023-12-20T13:58:25;10.40;99.90
29731;DHT22;16639;51.488;0.152;2023-12-20T14:00:52;10.40;99.90
29731;DHT22;16639;51.488;0.152;2023-12-20T14:03:20;10.40;99.90
29731;DHT22;16639;51.488;0.152;2023-12-20T14:05:47;10.40;99.90
29731;DHT22;16639;51.488;0.152;2023-12-20T14:08:15;10.40;99.90
29731;DHT22;16639;51.488;0.152;2023-12-20T14:10:42;10.40;99.90
29731;DHT22;16639;51.488;0.152;2023-12-20T14:13:10;10.20;99.90
29731;DHT22;16639;51.488;0.152;2023-12-20T14:15:37;10.50;99.90
29731;DHT22;16639;51.488;0.152;2023-12-20T14:18:05;10.50;99.90
29731;DHT22;16639;51.488;0.152;2023-12-20T14:20:36;11.20;99.90
29731;DHT22;16639;51.488;0.152;2023-12-20T14:23:03;10.40;99.90
29731;DHT22;16639;51.488;0.152;2023-12-20T14:25:31;10.30;99.90
29731;DHT22;16639;51.488;0.152;2023-12-20T14:28:12;10.40;99.90
29731;DHT22;16639;51.488;0.152;2023-12-20T14:30:41;10.70;99.90
29731;DHT22;16639;51.488;0.152;2023-12-20T14:33:11;10.50;99.90
29731;DHT22;16639;51.488;0.152;2023-12-20T14:35:39;10.50;99.90
29731;DHT22;16639;51.488;0.152;2023-12-20T14:38:10;10.50;99.90
29731;DHT22;16639;51.488;0.152;2023-12-20T14:40:38;10.40;99.90
29731;DHT22;16639;51.488;0.152;2023-12-20T14:43:06;10.50;99.90
29731;DHT22;16639;51.488;0.152;2023-12-20T14:45:33;10.50;99.90
29731;DHT22;16639;51.488;0.152;2023-12-20T14:48:01;10.40;99.90
29731;DHT22;16639;51.488;0.152;2023-12-20T14:50:55;10.50;99.90
29731;DHT22;16639;51.488;0.152;2023-12-20T14:53:24;10.50;99.90
29731;DHT22;16639;51.488;0.152;2023-12-20T14:55:52;10.80;99.90
29731;DHT22;16639;51.488;0.152;2023-12-20T14:58:22;10.50;99.90
29731;DHT22;16639;51.488;0.152;2023-12-20T15:00:50;10.50;99.90
29731;DHT22;16639;51.488;0.152;2023-12-20T15:03:17;10.50;99.90
29731;DHT22;16639;51.488;0.152;2023-12-20T15:05:54;10.50;99.90
29731;DHT22;16639;51.488;0.152;2023-12-20T15:08:31;10.50;99.90
29731;DHT22;16639;51.488;0.152;2023-12-20T15:10:59;10.50;99.90
29731;DHT22;16639;51.488;0.152;2023-12-20T15:13:29;10.50;99.90
29731;DHT22;16639;51.488;0.152;2023-12-20T15:15:58;10.50;99.90
29731;DHT22;16639;51.488;0.152;2023-12-20T15:18:26;10.60;99.90
29731;DHT22;16639;51.488;0.152;2023-12-20T15:20:54;10.50;99.90
29731;DHT22;16639;51.488;0.152;2023-12-20T15:23:22;10.50;99.90
29731;DHT22;16639;51.488;0.152;2023-12-20T15:25:53;10.80;99.90
29731;DHT22;16639;51.488;0.152;2023-12-20T15:28:20;10.50;99.90
29731;DHT22;16639;51.488;0.152;2023-12-20T15:30:47;11.50;99.90
29731;DHT22;16639;51.488;0.152;2023-12-20T15:33:15;10.50;99.90
29731;DHT22;16639;51.488;0.152;2023-12-20T15:35:48;10.50;99.90
29731;DHT22;16639;51.488;0.152;2023-12-20T15:38:16;10.50;99.90
29731;DHT22;16639;51.488;0.152;2023-12-20T15:40:46;10.50;99.90
29731;DHT22;16639;51.488;0.152;2023-12-20T15:43:13;10.50;99.90
29731;DHT22;16639;51.488;0.152;2023-12-20T15:45:41;10.50;99.90
29731;DHT22;16639;51.488;0.152;2023-12-20T15:48:09;10.50;99.90
29731;DHT22;16639;51.488;0.152;2023-12-20T15:50:39;10.50;99.90
29731;DHT22;16639;51.488;0.152;2023-12-20T15:53:06;10.50;99.90
29731;DHT22;16639;51.488;0.152;2023-12-20T15:55:34;10.40;99.90
29731;DHT22;16639;51.488;0.152;2023-12-20T15:58:02;10.50;99.90
29731;DHT22;16639;51.488;0.152;2023-12-20T16:00:30;10.30;99.90
29731;DHT22;16639;51.488;0.152;2023-12-20T16:02:58;10.50;99.90
29731;DHT22;16639;51.488;0.152;2023-12-20T16:05:25;10.50;99.90